sensor_id;sensor_type;location;lat;lon;timestamp;P1;durP1;ratioP1;P2;durP2;ratioP2
52564;SDS011;38460;53.106;7.004;2023-04-24T00:00:09;1.02;;;0.60;;
52564;SDS011;38460;53.106;7.004;2023-04-24T00:02:35;1.05;;;0.63;;
52564;SDS011;38460;53.106;7.004;2023-04-24T00:05:05;0.77;;;0.45;;
52564;SDS011;38460;53.106;7.004;2023-04-24T00:07:31;0.98;;;0.50;;
52564;SDS011;38460;53.106;7.004;2023-04-24T00:09:57;1.05;;;0.50;;
52564;SDS011;38460;53.106;7.004;2023-04-24T00:12:24;1.48;;;0.70;;
52564;SDS011;38460;53.106;7.004;2023-04-24T00:14:50;0.50;;;0.40;;
52564;SDS011;38460;53.106;7.004;2023-04-24T00:17:16;1.25;;;0.70;;
52564;SDS011;38460;53.106;7.004;2023-04-24T00:19:45;0.80;;;0.60;;
52564;SDS011;38460;53.106;7.004;2023-04-24T00:22:11;1.20;;;0.65;;
52564;SDS011;38460;53.106;7.004;2023-04-24T00:24:38;2.33;;;0.88;;
52564;SDS011;38460;53.106;7.004;2023-04-24T00:27:04;1.02;;;0.70;;
52564;SDS011;38460;53.106;7.004;2023-04-24T00:29:30;1.92;;;1.00;;
52564;SDS011;38460;53.106;7.004;2023-04-24T00:31:56;1.85;;;1.10;;
52564;SDS011;38460;53.106;7.004;2023-04-24T00:34:22;2.95;;;1.00;;
52564;SDS011;38460;53.106;7.004;2023-04-24T00:36:48;1.70;;;1.10;;
52564;SDS011;38460;53.106;7.004;2023-04-24T00:39:20;1.67;;;1.02;;
52564;SDS011;38460;53.106;7.004;2023-04-24T00:41:46;1.38;;;1.00;;
52564;SDS011;38460;53.106;7.004;2023-04-24T00:44:13;2.28;;;1.30;;
52564;SDS011;38460;53.106;7.004;2023-04-24T00:46:39;2.25;;;1.30;;
52564;SDS011;38460;53.106;7.004;2023-04-24T00:49:06;2.10;;;1.40;;
52564;SDS011;38460;53.106;7.004;2023-04-24T00:51:32;2.55;;;1.90;;
52564;SDS011;38460;53.106;7.004;2023-04-24T00:53:58;2.13;;;1.85;;
52564;SDS011;38460;53.106;7.004;2023-04-24T00:56:25;4.20;;;1.45;;
52564;SDS011;38460;53.106;7.004;2023-04-24T00:58:51;2.97;;;1.77;;
52564;SDS011;38460;53.106;7.004;2023-04-24T01:01:18;1.90;;;1.50;;
52564;SDS011;38460;53.106;7.004;2023-04-24T01:03:45;2.22;;;1.50;;
52564;SDS011;38460;53.106;7.004;2023-04-24T01:06:12;2.50;;;1.90;;
52564;SDS011;38460;53.106;7.004;2023-04-24T01:08:39;2.58;;;1.90;;
52564;SDS011;38460;53.106;7.004;2023-04-24T01:11:06;2.50;;;1.90;;
52564;SDS011;38460;53.106;7.004;2023-04-24T01:13:32;2.50;;;1.88;;
52564;SDS011;38460;53.106;7.004;2023-04-24T01:15:58;3.53;;;2.40;;
52564;SDS011;38460;53.106;7.004;2023-04-24T01:18:25;2.85;;;2.10;;
52564;SDS011;38460;53.106;7.004;2023-04-24T01:20:53;3.88;;;2.50;;
52564;SDS011;38460;53.106;7.004;2023-04-24T01:23:22;3.15;;;2.10;;
52564;SDS011;38460;53.106;7.004;2023-04-24T01:25:48;3.00;;;2.20;;
52564;SDS011;38460;53.106;7.004;2023-04-24T01:28:14;3.08;;;2.30;;
52564;SDS011;38460;53.106;7.004;2023-04-24T01:30:41;3.20;;;2.33;;
52564;SDS011;38460;53.106;7.004;2023-04-24T01:33:06;3.13;;;2.55;;
52564;SDS011;38460;53.106;7.004;2023-04-24T01:35:33;3.38;;;2.50;;
52564;SDS011;38460;53.106;7.004;2023-04-24T01:37:59;3.28;;;2.15;;
52564;SDS011;38460;53.106;7.004;2023-04-24T01:40:25;2.67;;;2.10;;
52564;SDS011;38460;53.106;7.004;2023-04-24T01:42:51;2.45;;;1.80;;
52564;SDS011;38460;53.106;7.004;2023-04-24T01:45:17;2.28;;;1.77;;
52564;SDS011;38460;53.106;7.004;2023-04-24T01:47:43;2.50;;;1.73;;
52564;SDS011;38460;53.106;7.004;2023-04-24T01:50:10;2.17;;;1.50;;
52564;SDS011;38460;53.106;7.004;2023-04-24T01:52:36;2.00;;;1.55;;
52564;SDS011;38460;53.106;7.004;2023-04-24T01:55:02;2.78;;;1.88;;
52564;SDS011;38460;53.106;7.004;2023-04-24T01:57:29;2.55;;;2.00;;
52564;SDS011;38460;53.106;7.004;2023-04-24T01:59:56;2.95;;;2.13;;
52564;SDS011;38460;53.106;7.004;2023-04-24T02:02:22;2.22;;;1.80;;
52564;SDS011;38460;53.106;7.004;2023-04-24T02:04:53;2.75;;;1.92;;
52564;SDS011;38460;53.106;7.004;2023-04-24T02:07:19;2.72;;;1.98;;
52564;SDS011;38460;53.106;7.004;2023-04-24T02:09:45;2.47;;;1.95;;
52564;SDS011;38460;53.106;7.004;2023-04-24T02:12:11;2.00;;;1.52;;
52564;SDS011;38460;53.106;7.004;2023-04-24T02:14:37;3.80;;;1.67;;
52564;SDS011;38460;53.106;7.004;2023-04-24T02:17:03;3.55;;;2.58;;
52564;SDS011;38460;53.106;7.004;2023-04-24T02:19:30;3.47;;;2.90;;
52564;SDS011;38460;53.106;7.004;2023-04-24T02:21:56;3.92;;;2.72;;
52564;SDS011;38460;53.106;7.004;2023-04-24T02:24:21;3.60;;;2.78;;
52564;SDS011;38460;53.106;7.004;2023-04-24T02:26:47;5.75;;;3.70;;
52564;SDS011;38460;53.106;7.004;2023-04-24T02:29:13;5.72;;;4.97;;
52564;SDS011;38460;53.106;7.004;2023-04-24T02:31:39;6.68;;;5.70;;
52564;SDS011;38460;53.106;7.004;2023-04-24T02:34:05;6.25;;;5.03;;
52564;SDS011;38460;53.106;7.004;2023-04-24T02:36:31;6.13;;;5.15;;
52564;SDS011;38460;53.106;7.004;2023-04-24T02:38:57;7.35;;;6.13;;
52564;SDS011;38460;53.106;7.004;2023-04-24T02:41:23;8.38;;;6.97;;
52564;SDS011;38460;53.106;7.004;2023-04-24T02:43:48;7.50;;;6.00;;
52564;SDS011;38460;53.106;7.004;2023-04-24T02:46:14;7.78;;;6.50;;
52564;SDS011;38460;53.106;7.004;2023-04-24T02:48:40;7.95;;;6.65;;
52564;SDS011;38460;53.106;7.004;2023-04-24T02:51:06;6.95;;;6.25;;
52564;SDS011;38460;53.106;7.004;2023-04-24T02:53:32;8.50;;;7.15;;
52564;SDS011;38460;53.106;7.004;2023-04-24T02:55:57;8.52;;;7.63;;
52564;SDS011;38460;53.106;7.004;2023-04-24T02:58:23;7.18;;;6.45;;
52564;SDS011;38460;53.106;7.004;2023-04-24T03:00:53;6.95;;;6.25;;
52564;SDS011;38460;53.106;7.004;2023-04-24T03:03:20;7.63;;;6.10;;
52564;SDS011;38460;53.106;7.004;2023-04-24T03:05:46;7.00;;;6.22;;
52564;SDS011;38460;53.106;7.004;2023-04-24T03:08:12;6.40;;;5.68;;
52564;SDS011;38460;53.106;7.004;2023-04-24T03:10:39;6.95;;;5.97;;
52564;SDS011;38460;53.106;7.004;2023-04-24T03:13:05;6.40;;;5.70;;
52564;SDS011;38460;53.106;7.004;2023-04-24T03:15:31;7.50;;;5.95;;
52564;SDS011;38460;53.106;7.004;2023-04-24T03:17:56;8.00;;;6.15;;
52564;SDS011;38460;53.106;7.004;2023-04-24T03:20:22;8.48;;;6.70;;
52564;SDS011;38460;53.106;7.004;2023-04-24T03:22:48;6.05;;;5.25;;
52564;SDS011;38460;53.106;7.004;2023-04-24T03:25:14;6.95;;;6.15;;
52564;SDS011;38460;53.106;7.004;2023-04-24T03:27:40;7.20;;;5.85;;
52564;SDS011;38460;53.106;7.004;2023-04-24T03:30:07;5.82;;;4.97;;
52564;SDS011;38460;53.106;7.004;2023-04-24T03:32:33;6.82;;;6.07;;
52564;SDS011;38460;53.106;7.004;2023-04-24T03:34:59;6.50;;;5.70;;
52564;SDS011;38460;53.106;7.004;2023-04-24T03:37:25;6.65;;;5.25;;
52564;SDS011;38460;53.106;7.004;2023-04-24T03:39:51;7.35;;;5.85;;
52564;SDS011;38460;53.106;7.004;2023-04-24T03:42:17;5.97;;;5.10;;
52564;SDS011;38460;53.106;7.004;2023-04-24T03:44:43;7.90;;;5.28;;
52564;SDS011;38460;53.106;7.004;2023-04-24T03:47:09;6.43;;;5.32;;
52564;SDS011;38460;53.106;7.004;2023-04-24T03:49:35;8.70;;;5.47;;
52564;SDS011;38460;53.106;7.004;2023-04-24T03:52:01;7.32;;;5.82;;
52564;SDS011;38460;53.106;7.004;2023-04-24T03:54:27;6.63;;;5.65;;
52564;SDS011;38460;53.106;7.004;2023-04-24T03:56:53;7.45;;;5.65;;
52564;SDS011;38460;53.106;7.004;2023-04-24T03:59:18;6.68;;;5.43;;
52564;SDS011;38460;53.106;7.004;2023-04-24T04:01:44;7.07;;;5.97;;
52564;SDS011;38460;53.106;7.004;2023-04-24T04:04:11;6.75;;;5.40;;
52564;SDS011;38460;53.106;7.004;2023-04-24T04:06:36;7.25;;;5.75;;
52564;SDS011;38460;53.106;7.004;2023-04-24T04:09:02;7.95;;;5.78;;
52564;SDS011;38460;53.106;7.004;2023-04-24T04:11:29;6.78;;;5.80;;
52564;SDS011;38460;53.106;7.004;2023-04-24T04:13:55;6.63;;;4.95;;
52564;SDS011;38460;53.106;7.004;2023-04-24T04:16:22;6.68;;;5.47;;
52564;SDS011;38460;53.106;7.004;2023-04-24T04:18:48;7.22;;;5.88;;
52564;SDS011;38460;53.106;7.004;2023-04-24T04:21:14;6.55;;;5.53;;
52564;SDS011;38460;53.106;7.004;2023-04-24T04:23:39;6.97;;;5.45;;
52564;SDS011;38460;53.106;7.004;2023-04-24T04:26:05;6.65;;;5.95;;
52564;SDS011;38460;53.106;7.004;2023-04-24T04:28:31;7.15;;;5.40;;
52564;SDS011;38460;53.106;7.004;2023-04-24T04:30:57;5.88;;;5.00;;
52564;SDS011;38460;53.106;7.004;2023-04-24T04:33:26;6.32;;;4.88;;
52564;SDS011;38460;53.106;7.004;2023-04-24T04:35:52;6.07;;;4.78;;
52564;SDS011;38460;53.106;7.004;2023-04-24T04:38:18;6.53;;;5.28;;
52564;SDS011;38460;53.106;7.004;2023-04-24T04:40:44;6.60;;;4.90;;
52564;SDS011;38460;53.106;7.004;2023-04-24T04:43:10;6.60;;;5.38;;
52564;SDS011;38460;53.106;7.004;2023-04-24T04:45:38;6.35;;;5.18;;
52564;SDS011;38460;53.106;7.004;2023-04-24T04:48:06;9.40;;;4.75;;
52564;SDS011;38460;53.106;7.004;2023-04-24T04:50:37;5.90;;;4.60;;
52564;SDS011;38460;53.106;7.004;2023-04-24T04:53:03;6.63;;;4.93;;
52564;SDS011;38460;53.106;7.004;2023-04-24T04:55:29;6.20;;;5.32;;
52564;SDS011;38460;53.106;7.004;2023-04-24T04:57:55;6.60;;;5.15;;
52564;SDS011;38460;53.106;7.004;2023-04-24T05:00:21;8.73;;;5.00;;
52564;SDS011;38460;53.106;7.004;2023-04-24T05:02:50;6.50;;;5.32;;
52564;SDS011;38460;53.106;7.004;2023-04-24T05:05:16;6.55;;;4.63;;
52564;SDS011;38460;53.106;7.004;2023-04-24T05:07:43;6.25;;;5.13;;
52564;SDS011;38460;53.106;7.004;2023-04-24T05:10:09;7.57;;;5.50;;
52564;SDS011;38460;53.106;7.004;2023-04-24T05:12:35;7.07;;;4.95;;
52564;SDS011;38460;53.106;7.004;2023-04-24T05:15:01;6.30;;;5.38;;
52564;SDS011;38460;53.106;7.004;2023-04-24T05:17:28;6.78;;;4.97;;
52564;SDS011;38460;53.106;7.004;2023-04-24T05:19:54;6.97;;;5.18;;
52564;SDS011;38460;53.106;7.004;2023-04-24T05:22:19;5.30;;;4.13;;
52564;SDS011;38460;53.106;7.004;2023-04-24T05:24:46;6.68;;;4.88;;
52564;SDS011;38460;53.106;7.004;2023-04-24T05:27:13;6.75;;;4.72;;
52564;SDS011;38460;53.106;7.004;2023-04-24T05:29:39;5.85;;;4.63;;
52564;SDS011;38460;53.106;7.004;2023-04-24T05:32:05;7.72;;;4.93;;
52564;SDS011;38460;53.106;7.004;2023-04-24T05:34:31;6.38;;;4.40;;
52564;SDS011;38460;53.106;7.004;2023-04-24T05:36:57;6.85;;;4.05;;
52564;SDS011;38460;53.106;7.004;2023-04-24T05:39:23;7.15;;;4.38;;
52564;SDS011;38460;53.106;7.004;2023-04-24T05:41:50;6.43;;;4.72;;
52564;SDS011;38460;53.106;7.004;2023-04-24T05:44:16;7.00;;;5.00;;
52564;SDS011;38460;53.106;7.004;2023-04-24T05:46:42;7.38;;;4.68;;
52564;SDS011;38460;53.106;7.004;2023-04-24T05:49:07;7.78;;;4.47;;
52564;SDS011;38460;53.106;7.004;2023-04-24T05:51:33;7.93;;;5.00;;
52564;SDS011;38460;53.106;7.004;2023-04-24T05:53:59;6.78;;;4.80;;
52564;SDS011;38460;53.106;7.004;2023-04-24T05:56:26;9.43;;;5.22;;
52564;SDS011;38460;53.106;7.004;2023-04-24T05:58:52;7.18;;;5.03;;
52564;SDS011;38460;53.106;7.004;2023-04-24T06:01:17;7.57;;;4.50;;
52564;SDS011;38460;53.106;7.004;2023-04-24T06:03:44;7.32;;;4.45;;
52564;SDS011;38460;53.106;7.004;2023-04-24T06:06:10;6.55;;;4.38;;
52564;SDS011;38460;53.106;7.004;2023-04-24T06:08:36;7.50;;;5.32;;
52564;SDS011;38460;53.106;7.004;2023-04-24T06:11:02;7.32;;;4.43;;
52564;SDS011;38460;53.106;7.004;2023-04-24T06:13:27;8.55;;;5.65;;
52564;SDS011;38460;53.106;7.004;2023-04-24T06:15:53;6.63;;;4.57;;
52564;SDS011;38460;53.106;7.004;2023-04-24T06:18:19;6.07;;;4.03;;
52564;SDS011;38460;53.106;7.004;2023-04-24T06:20:45;6.18;;;3.85;;
52564;SDS011;38460;53.106;7.004;2023-04-24T06:23:11;5.68;;;4.00;;
52564;SDS011;38460;53.106;7.004;2023-04-24T06:25:37;7.10;;;4.63;;
52564;SDS011;38460;53.106;7.004;2023-04-24T06:28:03;7.82;;;5.07;;
52564;SDS011;38460;53.106;7.004;2023-04-24T06:30:30;6.78;;;4.40;;
52564;SDS011;38460;53.106;7.004;2023-04-24T06:32:56;6.35;;;4.60;;
52564;SDS011;38460;53.106;7.004;2023-04-24T06:35:22;5.82;;;4.10;;
52564;SDS011;38460;53.106;7.004;2023-04-24T06:37:48;6.50;;;4.43;;
52564;SDS011;38460;53.106;7.004;2023-04-24T06:40:14;6.05;;;4.30;;
52564;SDS011;38460;53.106;7.004;2023-04-24T06:42:40;7.15;;;4.55;;
52564;SDS011;38460;53.106;7.004;2023-04-24T06:45:06;8.35;;;5.28;;
52564;SDS011;38460;53.106;7.004;2023-04-24T06:47:32;7.68;;;5.10;;
52564;SDS011;38460;53.106;7.004;2023-04-24T06:49:58;7.35;;;4.65;;
52564;SDS011;38460;53.106;7.004;2023-04-24T06:52:24;6.85;;;4.47;;
52564;SDS011;38460;53.106;7.004;2023-04-24T06:54:50;6.88;;;4.43;;
52564;SDS011;38460;53.106;7.004;2023-04-24T06:57:15;6.40;;;4.10;;
52564;SDS011;38460;53.106;7.004;2023-04-24T06:59:42;5.70;;;3.95;;
52564;SDS011;38460;53.106;7.004;2023-04-24T07:02:08;6.00;;;3.70;;
52564;SDS011;38460;53.106;7.004;2023-04-24T07:04:34;5.97;;;3.95;;
52564;SDS011;38460;53.106;7.004;2023-04-24T07:07:00;4.70;;;3.15;;
52564;SDS011;38460;53.106;7.004;2023-04-24T07:09:26;6.20;;;4.03;;
52564;SDS011;38460;53.106;7.004;2023-04-24T07:11:52;6.43;;;3.63;;
52564;SDS011;38460;53.106;7.004;2023-04-24T07:14:18;6.45;;;3.63;;
52564;SDS011;38460;53.106;7.004;2023-04-24T07:16:45;5.05;;;4.03;;
52564;SDS011;38460;53.106;7.004;2023-04-24T07:19:12;6.00;;;4.55;;
52564;SDS011;38460;53.106;7.004;2023-04-24T07:21:39;8.20;;;5.95;;
52564;SDS011;38460;53.106;7.004;2023-04-24T07:24:05;7.97;;;6.35;;
52564;SDS011;38460;53.106;7.004;2023-04-24T07:26:35;7.18;;;5.30;;
52564;SDS011;38460;53.106;7.004;2023-04-24T07:29:02;9.55;;;6.47;;
52564;SDS011;38460;53.106;7.004;2023-04-24T07:31:28;7.97;;;6.00;;
52564;SDS011;38460;53.106;7.004;2023-04-24T07:33:54;7.25;;;5.35;;
52564;SDS011;38460;53.106;7.004;2023-04-24T07:36:23;7.03;;;4.93;;
52564;SDS011;38460;53.106;7.004;2023-04-24T07:38:49;7.40;;;5.18;;
52564;SDS011;38460;53.106;7.004;2023-04-24T07:41:15;6.50;;;4.00;;
52564;SDS011;38460;53.106;7.004;2023-04-24T07:43:41;5.13;;;3.35;;
52564;SDS011;38460;53.106;7.004;2023-04-24T07:46:07;3.70;;;2.83;;
52564;SDS011;38460;53.106;7.004;2023-04-24T07:48:34;3.22;;;2.20;;
52564;SDS011;38460;53.106;7.004;2023-04-24T07:51:00;3.30;;;2.05;;
52564;SDS011;38460;53.106;7.004;2023-04-24T07:53:25;3.85;;;2.45;;
52564;SDS011;38460;53.106;7.004;2023-04-24T07:55:51;3.30;;;2.20;;
52564;SDS011;38460;53.106;7.004;2023-04-24T07:58:18;3.53;;;2.50;;
52564;SDS011;38460;53.106;7.004;2023-04-24T08:00:44;3.72;;;2.42;;
52564;SDS011;38460;53.106;7.004;2023-04-24T08:03:10;3.75;;;2.20;;
52564;SDS011;38460;53.106;7.004;2023-04-24T08:05:37;3.97;;;2.88;;
52564;SDS011;38460;53.106;7.004;2023-04-24T08:08:03;7.00;;;4.50;;
52564;SDS011;38460;53.106;7.004;2023-04-24T08:10:29;6.68;;;4.30;;
52564;SDS011;38460;53.106;7.004;2023-04-24T08:12:55;5.47;;;3.00;;
52564;SDS011;38460;53.106;7.004;2023-04-24T08:15:21;4.65;;;2.83;;
52564;SDS011;38460;53.106;7.004;2023-04-24T08:17:46;5.75;;;3.10;;
52564;SDS011;38460;53.106;7.004;2023-04-24T08:20:12;4.40;;;3.13;;
52564;SDS011;38460;53.106;7.004;2023-04-24T08:22:39;7.18;;;3.67;;
52564;SDS011;38460;53.106;7.004;2023-04-24T08:25:08;3.90;;;2.83;;
52564;SDS011;38460;53.106;7.004;2023-04-24T08:27:35;4.63;;;2.63;;
52564;SDS011;38460;53.106;7.004;2023-04-24T08:30:04;4.82;;;3.00;;
52564;SDS011;38460;53.106;7.004;2023-04-24T08:32:31;4.18;;;2.42;;
52564;SDS011;38460;53.106;7.004;2023-04-24T08:34:57;6.30;;;2.30;;
52564;SDS011;38460;53.106;7.004;2023-04-24T08:37:26;3.55;;;1.92;;
52564;SDS011;38460;53.106;7.004;2023-04-24T08:39:52;3.00;;;2.13;;
52564;SDS011;38460;53.106;7.004;2023-04-24T08:42:18;32.90;;;2.78;;
52564;SDS011;38460;53.106;7.004;2023-04-24T08:44:45;4.25;;;2.40;;
52564;SDS011;38460;53.106;7.004;2023-04-24T08:47:11;5.20;;;2.80;;
52564;SDS011;38460;53.106;7.004;2023-04-24T08:49:37;5.90;;;3.55;;
52564;SDS011;38460;53.106;7.004;2023-04-24T08:52:07;6.88;;;4.00;;
52564;SDS011;38460;53.106;7.004;2023-04-24T08:54:36;8.27;;;5.03;;
52564;SDS011;38460;53.106;7.004;2023-04-24T08:57:02;9.45;;;5.03;;
52564;SDS011;38460;53.106;7.004;2023-04-24T08:59:31;8.25;;;5.75;;
52564;SDS011;38460;53.106;7.004;2023-04-24T09:01:58;12.75;;;5.95;;
52564;SDS011;38460;53.106;7.004;2023-04-24T09:04:25;8.88;;;6.05;;
52564;SDS011;38460;53.106;7.004;2023-04-24T09:06:54;13.23;;;7.03;;
52564;SDS011;38460;53.106;7.004;2023-04-24T09:09:22;15.13;;;8.90;;
52564;SDS011;38460;53.106;7.004;2023-04-24T09:11:49;15.77;;;8.48;;
52564;SDS011;38460;53.106;7.004;2023-04-24T09:14:15;19.27;;;9.20;;
52564;SDS011;38460;53.106;7.004;2023-04-24T09:16:43;16.10;;;10.23;;
52564;SDS011;38460;53.106;7.004;2023-04-24T09:19:08;16.63;;;10.30;;
52564;SDS011;38460;53.106;7.004;2023-04-24T09:21:34;24.85;;;11.57;;
52564;SDS011;38460;53.106;7.004;2023-04-24T09:24:05;20.85;;;11.88;;
52564;SDS011;38460;53.106;7.004;2023-04-24T09:26:34;20.60;;;11.75;;
52564;SDS011;38460;53.106;7.004;2023-04-24T09:29:01;20.50;;;11.38;;
52564;SDS011;38460;53.106;7.004;2023-04-24T09:31:29;20.27;;;10.85;;
52564;SDS011;38460;53.106;7.004;2023-04-24T09:36:35;18.58;;;11.15;;
52564;SDS011;38460;53.106;7.004;2023-04-24T09:39:06;18.65;;;11.05;;
52564;SDS011;38460;53.106;7.004;2023-04-24T09:41:48;16.55;;;9.77;;
52564;SDS011;38460;53.106;7.004;2023-04-24T09:44:17;16.98;;;10.55;;
52564;SDS011;38460;53.106;7.004;2023-04-24T09:46:49;20.00;;;11.23;;
52564;SDS011;38460;53.106;7.004;2023-04-24T09:49:29;21.25;;;10.93;;
52564;SDS011;38460;53.106;7.004;2023-04-24T09:52:10;18.05;;;10.82;;
52564;SDS011;38460;53.106;7.004;2023-04-24T09:54:36;16.55;;;11.13;;
52564;SDS011;38460;53.106;7.004;2023-04-24T09:57:03;16.85;;;11.25;;
52564;SDS011;38460;53.106;7.004;2023-04-24T09:59:29;22.95;;;12.40;;
52564;SDS011;38460;53.106;7.004;2023-04-24T10:01:55;19.20;;;11.60;;
52564;SDS011;38460;53.106;7.004;2023-04-24T10:04:27;21.38;;;11.05;;
52564;SDS011;38460;53.106;7.004;2023-04-24T10:06:55;18.55;;;11.10;;
52564;SDS011;38460;53.106;7.004;2023-04-24T10:09:22;17.85;;;10.93;;
52564;SDS011;38460;53.106;7.004;2023-04-24T10:11:51;22.60;;;11.13;;
52564;SDS011;38460;53.106;7.004;2023-04-24T10:14:19;15.80;;;9.95;;
52564;SDS011;38460;53.106;7.004;2023-04-24T10:16:46;17.13;;;9.40;;
52564;SDS011;38460;53.106;7.004;2023-04-24T10:19:16;14.40;;;9.13;;
52564;SDS011;38460;53.106;7.004;2023-04-24T10:21:45;14.68;;;9.73;;
52564;SDS011;38460;53.106;7.004;2023-04-24T10:24:15;14.65;;;8.40;;
52564;SDS011;38460;53.106;7.004;2023-04-24T10:26:43;15.27;;;8.85;;
52564;SDS011;38460;53.106;7.004;2023-04-24T10:29:10;14.02;;;8.50;;
52564;SDS011;38460;53.106;7.004;2023-04-24T10:31:37;15.07;;;8.15;;
52564;SDS011;38460;53.106;7.004;2023-04-24T10:34:04;16.20;;;8.68;;
52564;SDS011;38460;53.106;7.004;2023-04-24T10:36:31;12.52;;;8.20;;
52564;SDS011;38460;53.106;7.004;2023-04-24T10:38:59;12.80;;;8.00;;
52564;SDS011;38460;53.106;7.004;2023-04-24T10:41:27;16.75;;;8.75;;
52564;SDS011;38460;53.106;7.004;2023-04-24T10:44:05;13.18;;;7.60;;
52564;SDS011;38460;53.106;7.004;2023-04-24T10:46:35;16.15;;;8.45;;
52564;SDS011;38460;53.106;7.004;2023-04-24T10:49:05;16.48;;;8.75;;
52564;SDS011;38460;53.106;7.004;2023-04-24T10:51:46;17.27;;;7.88;;
52564;SDS011;38460;53.106;7.004;2023-04-24T10:54:24;17.42;;;7.80;;
52564;SDS011;38460;53.106;7.004;2023-04-24T10:59:51;12.70;;;7.13;;
52564;SDS011;38460;53.106;7.004;2023-04-24T11:02:36;13.32;;;6.75;;
52564;SDS011;38460;53.106;7.004;2023-04-24T11:05:04;13.65;;;6.53;;
52564;SDS011;38460;53.106;7.004;2023-04-24T11:07:42;10.88;;;5.70;;
52564;SDS011;38460;53.106;7.004;2023-04-24T11:10:37;5.57;;;3.90;;
52564;SDS011;38460;53.106;7.004;2023-04-24T11:13:21;4.93;;;3.72;;
52564;SDS011;38460;53.106;7.004;2023-04-24T11:16:11;5.97;;;4.00;;
52564;SDS011;38460;53.106;7.004;2023-04-24T11:18:39;7.20;;;3.63;;
52564;SDS011;38460;53.106;7.004;2023-04-24T11:21:13;8.25;;;4.15;;
52564;SDS011;38460;53.106;7.004;2023-04-24T11:26:11;7.95;;;3.80;;
52564;SDS011;38460;53.106;7.004;2023-04-24T11:28:48;7.80;;;4.18;;
52564;SDS011;38460;53.106;7.004;2023-04-24T11:31:34;5.00;;;3.15;;
52564;SDS011;38460;53.106;7.004;2023-04-24T11:34:07;6.93;;;3.33;;
52564;SDS011;38460;53.106;7.004;2023-04-24T11:36:39;6.07;;;3.08;;
52564;SDS011;38460;53.106;7.004;2023-04-24T11:39:07;5.05;;;3.63;;
52564;SDS011;38460;53.106;7.004;2023-04-24T11:41:33;4.70;;;3.00;;
52564;SDS011;38460;53.106;7.004;2023-04-24T11:44:00;10.98;;;2.70;;
52564;SDS011;38460;53.106;7.004;2023-04-24T11:46:30;6.85;;;2.70;;
52564;SDS011;38460;53.106;7.004;2023-04-24T11:48:56;7.05;;;3.03;;
52564;SDS011;38460;53.106;7.004;2023-04-24T11:51:23;7.47;;;3.53;;
52564;SDS011;38460;53.106;7.004;2023-04-24T11:53:53;7.35;;;2.75;;
52564;SDS011;38460;53.106;7.004;2023-04-24T11:56:24;7.03;;;3.13;;
52564;SDS011;38460;53.106;7.004;2023-04-24T11:58:53;9.90;;;3.70;;
52564;SDS011;38460;53.106;7.004;2023-04-24T12:01:19;3.63;;;2.60;;
52564;SDS011;38460;53.106;7.004;2023-04-24T12:03:49;7.43;;;3.00;;
52564;SDS011;38460;53.106;7.004;2023-04-24T12:06:16;9.30;;;3.10;;
52564;SDS011;38460;53.106;7.004;2023-04-24T12:08:45;6.78;;;3.03;;
52564;SDS011;38460;53.106;7.004;2023-04-24T12:11:14;6.88;;;2.97;;
52564;SDS011;38460;53.106;7.004;2023-04-24T12:13:40;5.78;;;2.60;;
52564;SDS011;38460;53.106;7.004;2023-04-24T12:16:06;5.50;;;2.05;;
52564;SDS011;38460;53.106;7.004;2023-04-24T12:18:32;3.80;;;2.60;;
52564;SDS011;38460;53.106;7.004;2023-04-24T12:21:17;5.20;;;2.60;;
52564;SDS011;38460;53.106;7.004;2023-04-24T12:23:43;6.88;;;2.03;;
52564;SDS011;38460;53.106;7.004;2023-04-24T12:26:16;7.00;;;2.15;;
52564;SDS011;38460;53.106;7.004;2023-04-24T12:28:45;5.82;;;2.15;;
52564;SDS011;38460;53.106;7.004;2023-04-24T12:31:13;6.82;;;3.03;;
52564;SDS011;38460;53.106;7.004;2023-04-24T12:33:39;6.28;;;2.22;;
52564;SDS011;38460;53.106;7.004;2023-04-24T12:36:05;3.92;;;2.25;;
52564;SDS011;38460;53.106;7.004;2023-04-24T12:38:31;5.53;;;2.00;;
52564;SDS011;38460;53.106;7.004;2023-04-24T12:41:11;4.97;;;2.17;;
52564;SDS011;38460;53.106;7.004;2023-04-24T12:43:38;5.50;;;1.83;;
52564;SDS011;38460;53.106;7.004;2023-04-24T12:46:15;5.55;;;2.22;;
52564;SDS011;38460;53.106;7.004;2023-04-24T12:48:41;3.85;;;1.88;;
52564;SDS011;38460;53.106;7.004;2023-04-24T12:51:07;5.95;;;2.00;;
52564;SDS011;38460;53.106;7.004;2023-04-24T12:53:32;4.13;;;1.50;;
52564;SDS011;38460;53.106;7.004;2023-04-24T12:55:58;6.65;;;2.20;;
52564;SDS011;38460;53.106;7.004;2023-04-24T12:58:24;3.97;;;1.60;;
52564;SDS011;38460;53.106;7.004;2023-04-24T13:00:50;5.18;;;1.75;;
52564;SDS011;38460;53.106;7.004;2023-04-24T13:03:15;5.82;;;2.05;;
52564;SDS011;38460;53.106;7.004;2023-04-24T13:05:42;7.75;;;2.33;;
52564;SDS011;38460;53.106;7.004;2023-04-24T13:08:08;3.88;;;2.10;;
52564;SDS011;38460;53.106;7.004;2023-04-24T13:10:34;7.88;;;2.33;;
52564;SDS011;38460;53.106;7.004;2023-04-24T13:13:00;4.32;;;1.90;;
52564;SDS011;38460;53.106;7.004;2023-04-24T13:15:26;4.25;;;1.95;;
52564;SDS011;38460;53.106;7.004;2023-04-24T13:17:52;4.68;;;2.05;;
52564;SDS011;38460;53.106;7.004;2023-04-24T13:20:18;4.32;;;1.80;;
52564;SDS011;38460;53.106;7.004;2023-04-24T13:22:44;4.68;;;1.77;;
52564;SDS011;38460;53.106;7.004;2023-04-24T13:25:10;4.80;;;1.45;;
52564;SDS011;38460;53.106;7.004;2023-04-24T13:27:37;2.42;;;1.35;;
52564;SDS011;38460;53.106;7.004;2023-04-24T13:30:04;3.38;;;1.42;;
52564;SDS011;38460;53.106;7.004;2023-04-24T13:32:31;3.83;;;1.70;;
52564;SDS011;38460;53.106;7.004;2023-04-24T13:34:58;5.07;;;1.65;;
52564;SDS011;38460;53.106;7.004;2023-04-24T13:37:24;4.15;;;1.30;;
52564;SDS011;38460;53.106;7.004;2023-04-24T13:39:50;5.22;;;2.22;;
52564;SDS011;38460;53.106;7.004;2023-04-24T13:42:16;5.35;;;2.03;;
52564;SDS011;38460;53.106;7.004;2023-04-24T13:44:41;3.40;;;1.30;;
52564;SDS011;38460;53.106;7.004;2023-04-24T13:47:07;2.33;;;1.30;;
52564;SDS011;38460;53.106;7.004;2023-04-24T13:49:33;3.47;;;1.67;;
52564;SDS011;38460;53.106;7.004;2023-04-24T13:51:59;3.25;;;1.50;;
52564;SDS011;38460;53.106;7.004;2023-04-24T13:54:24;3.72;;;1.50;;
52564;SDS011;38460;53.106;7.004;2023-04-24T13:56:51;3.22;;;1.40;;
52564;SDS011;38460;53.106;7.004;2023-04-24T13:59:17;2.97;;;1.40;;
52564;SDS011;38460;53.106;7.004;2023-04-24T14:01:44;3.72;;;1.70;;
52564;SDS011;38460;53.106;7.004;2023-04-24T14:04:10;4.93;;;1.52;;
52564;SDS011;38460;53.106;7.004;2023-04-24T14:06:37;2.20;;;1.48;;
52564;SDS011;38460;53.106;7.004;2023-04-24T14:09:02;4.78;;;2.10;;
52564;SDS011;38460;53.106;7.004;2023-04-24T14:11:28;3.63;;;1.50;;
52564;SDS011;38460;53.106;7.004;2023-04-24T14:13:54;3.53;;;1.92;;
52564;SDS011;38460;53.106;7.004;2023-04-24T14:16:23;4.85;;;1.88;;
52564;SDS011;38460;53.106;7.004;2023-04-24T14:18:49;3.20;;;1.30;;
52564;SDS011;38460;53.106;7.004;2023-04-24T14:21:15;2.90;;;1.23;;
52564;SDS011;38460;53.106;7.004;2023-04-24T14:23:41;2.40;;;1.02;;
52564;SDS011;38460;53.106;7.004;2023-04-24T14:26:07;3.00;;;0.98;;
52564;SDS011;38460;53.106;7.004;2023-04-24T14:28:33;2.45;;;1.00;;
52564;SDS011;38460;53.106;7.004;2023-04-24T14:30:59;4.85;;;1.20;;
52564;SDS011;38460;53.106;7.004;2023-04-24T14:33:24;5.15;;;1.77;;
52564;SDS011;38460;53.106;7.004;2023-04-24T14:35:50;2.10;;;0.88;;
52564;SDS011;38460;53.106;7.004;2023-04-24T14:38:16;3.35;;;1.00;;
52564;SDS011;38460;53.106;7.004;2023-04-24T14:40:42;2.33;;;1.05;;
52564;SDS011;38460;53.106;7.004;2023-04-24T14:43:08;2.45;;;1.20;;
52564;SDS011;38460;53.106;7.004;2023-04-24T14:45:34;2.38;;;1.15;;
52564;SDS011;38460;53.106;7.004;2023-04-24T14:48:00;3.20;;;1.25;;
52564;SDS011;38460;53.106;7.004;2023-04-24T14:50:26;2.55;;;1.40;;
52564;SDS011;38460;53.106;7.004;2023-04-24T14:52:53;4.80;;;1.60;;